Pagrindinis puslapis
METAR-TAF:

METAR-TAF

Oro uostai :

Damamas, Saudo Arabija

platuma: 26-28N, ilguma: 049-47E, Aukštis: 22 m

Dabartinis oras

Ataskaita buvo paskelbta 10 minutes, ne 11:00 UTC
Vėjas 2 kt iš Vakarų/Šiaurės Vakarų
Temperatūra 43°C
Drėgmė 14%
Slėgis 1003 hPa
Matomumas 10 km arba daugiau
nėra debesų žemiau 1500 m ir nėra kamuolinių lietaus debesų

METAR: OEDF 171100Z 29002KT CAVOK 43/10 Q1003 NOSIG

Laikas: 14:10 (11:10 UTC)

Prognozė

Ataskaita buvo paskelbta 5 valandos ir 40 minutes, ne 05:30 UTC
Prognozė galioja nuo 17 metu 06 UTC su 18 metu 12 UTC
Vėjas 7 kt iš Vakarų
Matomumas: 8000 m
Tapsmas
nuo 17 metu 09 UTC su 17 metu 11 UTC
Vėjas 10 kt iš Šiaurės Rytų
Tapsmas
nuo 17 metu 18 UTC su 17 metu 20 UTC
Vėjas 5 kt nuo kintamojo kryptimis

TAF: OEDF 170530Z 1706/1812 28007KT 8000 NSC BECMG 1709/1711 05010KT BECMG 1718/1720 VRB05KT

Orai ataskaitas ir orų prognozės (METAR, TAF).

turimą stotys yra geltonos ir raudonos taškus žemėlapyje.

Perkelti pele per norėdami pamatyti stoties vardą.

Tada spustelėkite, norėdami matyti oro stebėjimo ir prognozės.

Norėdami pakeisti žemėlapį: spustelėkite ant žalios mygtukų su juodo kryžiaus žemyn,; žalią mygtuką su brūkšneliu, jei norite nutolinti; arba žalių rodyklių gretimoms žemėlapius.


METAR-TAF: